Time;durP1;ratioP1;P1;durP2;ratioP2;P2;SDS_P1;SDS_P2;PMS_P1;PMS_P2;Temp;Humidity;BMP_temperature;BMP_pressure;BME280_temperature;BME280_humidity;BME280_pressure;Samples;Min_cycle;Max_cycle;Signal;HPM_P1;HPM_P2
2022/03/15 00:01:01;;;;;;;23.20;12.82;;;;;;;3.49;46.28;101573.09;5044844;28;20036;-61
2022/03/15 00:03:27;;;;;;;26.42;14.35;;;;;;;3.45;46.62;101572.09;5044637;28;20397;-61
2022/03/15 00:05:52;;;;;;;26.88;14.13;;;;;;;3.31;46.69;101568.97;5044605;28;20013;-61
2022/03/15 00:08:19;;;;;;;30.27;14.50;;;;;;;3.24;46.68;101570.44;5044657;28;20075;-61
2022/03/15 00:10:45;;;;;;;30.45;14.02;;;;;;;3.17;46.80;101574.44;5043641;28;20033;-60
2022/03/15 00:13:11;;;;;;;26.20;13.70;;;;;;;3.14;46.85;101566.59;5044309;28;20557;-61
2022/03/15 00:15:36;;;;;;;31.80;14.50;;;;;;;3.14;47.10;101569.16;5026797;28;20122;-60
2022/03/15 00:18:03;;;;;;;26.38;14.32;;;;;;;3.06;47.29;101573.09;5044240;28;20026;-60
2022/03/15 00:20:29;;;;;;;28.23;12.48;;;;;;;3.12;47.11;101565.66;5044345;28;20424;-61
2022/03/15 00:22:57;;;;;;;28.73;14.88;;;;;;;3.07;47.62;101565.47;5044335;28;20053;-61
2022/03/15 00:25:23;;;;;;;27.17;14.52;;;;;;;2.92;47.83;101558.03;5044176;28;20029;-60
2022/03/15 00:27:52;;;;;;;27.52;13.73;;;;;;;2.94;48.03;101553.81;5044333;28;20029;-60
2022/03/15 00:30:20;;;;;;;24.05;13.60;;;;;;;2.80;48.25;101555.81;5044277;28;20091;-62
2022/03/15 00:32:46;;;;;;;19.38;8.80;;;;;;;2.80;48.24;101566.06;5044074;28;20101;-62
2022/03/15 00:35:16;;;;;;;26.50;13.73;;;;;;;2.74;48.58;101560.69;5043945;28;20029;-61
2022/03/15 00:37:46;;;;;;;25.75;13.55;;;;;;;2.68;48.56;101557.84;5043930;28;20178;-61
2022/03/15 00:40:13;;;;;;;27.70;13.07;;;;;;;2.62;48.61;101555.03;5044091;28;20051;-61
2022/03/15 00:42:39;;;;;;;28.80;13.40;;;;;;;2.58;48.89;101548.88;5043740;28;20032;-61
2022/03/15 00:45:06;;;;;;;28.83;14.93;;;;;;;2.50;48.90;101545.09;5043998;28;20052;-61
2022/03/15 00:47:32;;;;;;;26.05;12.07;;;;;;;2.47;49.12;101539.06;5043812;28;20474;-61
2022/03/15 00:49:57;;;;;;;29.60;14.43;;;;;;;2.47;49.35;101545.88;5043893;28;20025;-61
2022/03/15 00:52:23;;;;;;;22.48;10.80;;;;;;;2.51;49.80;101540.03;5043735;28;20053;-61
2022/03/15 00:54:48;;;;;;;28.90;12.88;;;;;;;2.54;49.85;101544.44;5043641;28;20030;-61
2022/03/15 00:57:13;;;;;;;25.63;12.80;;;;;;;2.42;49.99;101537.97;5043694;28;20025;-61
2022/03/15 00:59:39;;;;;;;31.65;12.15;;;;;;;2.42;50.21;101537.97;5043719;28;20056;-61
2022/03/15 01:02:04;;;;;;;23.70;10.05;;;;;;;2.34;50.21;101537.66;5043788;28;20025;-61
2022/03/15 01:04:29;;;;;;;24.52;11.25;;;;;;;2.42;50.40;101534.53;5043345;28;20022;-61
2022/03/15 01:06:55;;;;;;;26.13;13.30;;;;;;;2.32;50.70;101535.81;5043814;28;20040;-61
2022/03/15 01:09:20;;;;;;;20.65;10.45;;;;;;;2.27;50.92;101530.47;5043496;28;20040;-61
2022/03/15 01:11:46;;;;;;;18.00;10.43;;;;;;;2.25;51.07;101537.25;5043495;28;20014;-62
2022/03/15 01:14:11;;;;;;;23.48;11.65;;;;;;;2.15;51.09;101532.50;5043297;28;20071;-62
2022/03/15 01:16:37;;;;;;;20.98;11.73;;;;;;;2.21;51.36;101533.66;5043571;28;20033;-62
2022/03/15 01:19:04;;;;;;;19.98;9.13;;;;;;;2.22;51.52;101537.97;5043272;28;20026;-62
2022/03/15 01:21:31;;;;;;;25.17;12.35;;;;;;;2.13;51.66;101544.34;5043206;28;20083;-62
2022/03/15 01:23:56;;;;;;;20.35;9.65;;;;;;;2.22;51.56;101544.78;5043514;28;20029;-62
2022/03/15 01:26:22;;;;;;;24.83;13.05;;;;;;;2.18;51.83;101548.91;5043110;28;20160;-62
2022/03/15 01:28:47;;;;;;;26.08;13.02;;;;;;;2.02;51.84;101552.44;5043441;28;20025;-62
2022/03/15 01:31:13;;;;;;;22.95;11.70;;;;;;;2.19;51.75;101549.78;5043169;28;20393;-62
2022/03/15 01:33:38;;;;;;;18.13;8.90;;;;;;;2.18;52.00;101548.91;5043053;28;20504;-61
2022/03/15 01:36:04;;;;;;;10.15;5.20;;;;;;;2.39;52.08;101553.22;5043188;28;20095;-61
2022/03/15 01:38:29;;;;;;;22.85;9.70;;;;;;;2.27;51.95;101547.56;5042978;28;20053;-61
2022/03/15 01:40:55;;;;;;;19.77;9.40;;;;;;;2.12;52.39;101547.75;5043043;28;20048;-61
2022/03/15 01:43:20;;;;;;;19.58;9.00;;;;;;;2.05;52.63;101546.56;5042906;28;20048;-61
2022/03/15 01:45:45;;;;;;;16.65;8.07;;;;;;;2.15;52.32;101547.88;5025253;28;20021;-62
2022/03/15 01:48:11;;;;;;;19.02;8.35;;;;;;;2.06;52.74;101541.53;5042858;28;20021;-62
2022/03/15 01:50:37;;;;;;;21.15;11.55;;;;;;;2.00;52.46;101548.06;5043357;28;20033;-62
2022/03/15 01:53:04;;;;;;;23.35;9.63;;;;;;;2.13;52.40;101535.00;5042963;28;20397;-62
2022/03/15 01:55:29;;;;;;;17.75;9.68;;;;;;;1.95;52.66;101540.19;5043098;28;20026;-62
2022/03/15 01:57:55;;;;;;;22.85;12.73;;;;;;;1.94;52.71;101538.41;5025223;28;20401;-62
2022/03/15 02:00:21;;;;;;;13.18;4.65;;;;;;;2.00;52.92;101537.84;5043255;28;20045;-61
2022/03/15 02:02:47;;;;;;;18.30;10.13;;;;;;;2.06;52.80;101530.41;5042658;28;20030;-62
2022/03/15 02:05:12;;;;;;;23.15;11.32;;;;;;;1.97;53.02;101534.31;5042964;28;20026;-61
2022/03/15 02:07:38;;;;;;;23.83;12.55;;;;;;;1.79;53.20;101518.97;5042877;28;20049;-61
2022/03/15 02:10:09;;;;;;;23.60;10.18;;;;;;;1.85;53.35;101523.53;5043139;28;20021;-62
2022/03/15 02:12:36;;;;;;;15.57;8.48;;;;;;;1.75;53.61;101521.31;5042763;28;20029;-61
2022/03/15 02:15:03;;;;;;;21.20;9.15;;;;;;;1.61;53.94;101524.16;5024921;28;20036;-62
2022/03/15 02:17:29;;;;;;;22.42;12.57;;;;;;;1.72;53.64;101530.66;5042689;28;20093;-62
2022/03/15 02:19:55;;;;;;;11.73;5.20;;;;;;;1.90;53.44;101536.53;5042536;28;20109;-61
2022/03/15 02:22:21;;;;;;;21.52;10.25;;;;;;;1.63;53.87;101535.31;5043050;28;20041;-62
2022/03/15 02:24:47;;;;;;;24.13;10.07;;;;;;;1.68;54.07;101536.41;5042659;28;20029;-62
2022/03/15 02:27:12;;;;;;;23.23;8.45;;;;;;;1.65;54.16;101533.72;5042846;28;20059;-61
2022/03/15 02:29:37;;;;;;;21.45;10.52;;;;;;;1.68;54.12;101530.41;5042652;28;20076;-62
2022/03/15 02:32:03;;;;;;;12.23;7.07;;;;;;;1.67;54.31;101529.53;5042677;28;20041;-62
2022/03/15 02:34:29;;;;;;;23.48;11.70;;;;;;;1.46;54.68;101543.09;5046104;28;20033;-61
2022/03/15 02:36:54;;;;;;;24.88;11.45;;;;;;;1.39;54.77;101543.59;5046125;28;20054;-61
2022/03/15 02:39:19;;;;;;;19.50;9.15;;;;;;;1.39;54.88;101542.72;5046312;28;20026;-61
2022/03/15 02:41:45;;;;;;;20.75;8.85;;;;;;;1.51;54.72;101540.75;5046268;28;20112;-61
2022/03/15 02:44:11;;;;;;;11.05;5.47;;;;;;;1.58;54.55;101544.47;5046392;28;20033;-62
2022/03/15 02:46:39;;;;;;;18.45;7.53;;;;;;;1.39;54.89;101548.69;5046009;28;20033;-62
2022/03/15 02:49:05;;;;;;;16.60;7.80;;;;;;;1.37;55.07;101550.34;5045940;28;20025;-62
2022/03/15 02:51:31;;;;;;;21.25;10.63;;;;;;;1.36;55.30;101559.69;5046045;28;20033;-62
2022/03/15 02:53:57;;;;;;;25.08;10.80;;;;;;;1.22;55.58;101551.34;5046012;28;20028;-61
2022/03/15 02:56:22;;;;;;;21.35;11.23;;;;;;;1.12;55.77;101554.25;5046057;28;20502;-61
2022/03/15 02:58:48;;;;;;;26.52;12.50;;;;;;;1.21;55.30;101549.59;5046013;28;20027;-61
2022/03/15 03:01:14;;;;;;;9.82;5.38;;;;;;;1.20;55.72;101557.16;5045931;28;20029;-61
2022/03/15 03:03:39;;;;;;;20.80;10.25;;;;;;;1.13;55.80;101553.47;5045679;28;20048;-61
2022/03/15 03:06:05;;;;;;;23.30;10.65;;;;;;;1.13;55.84;101557.69;5045939;28;20037;-61
2022/03/15 03:08:31;;;;;;;16.73;9.63;;;;;;;1.05;56.03;101554.75;5045841;28;20496;-62
2022/03/15 03:10:57;;;;;;;21.23;8.68;;;;;;;1.09;56.08;101557.53;5045822;28;20033;-61
2022/03/15 03:13:26;;;;;;;21.02;8.23;;;;;;;1.12;55.93;101569.59;5045697;28;20075;-61
2022/03/15 03:15:57;;;;;;;22.20;10.85;;;;;;;0.99;56.36;101560.44;5045690;28;20021;-61
2022/03/15 03:18:25;;;;;;;21.67;9.87;;;;;;;1.06;56.20;101559.94;5045503;28;20025;-61
2022/03/15 03:20:50;;;;;;;16.40;7.68;;;;;;;1.01;56.35;101565.66;5045700;28;20259;-62
2022/03/15 03:23:17;;;;;;;21.45;10.68;;;;;;;0.96;56.70;101566.28;5045922;28;20013;-62
2022/03/15 03:25:43;;;;;;;14.93;8.80;;;;;;;0.82;56.66;101550.25;5045168;28;20509;-62
2022/03/15 03:28:09;;;;;;;19.08;9.80;;;;;;;0.83;56.78;101569.88;5045237;28;20036;-62
2022/03/15 03:30:37;;;;;;;22.13;11.98;;;;;;;0.83;56.72;101563.91;5045316;28;20029;-62
2022/03/15 03:33:02;;;;;;;15.43;8.48;;;;;;;0.91;56.57;101571.97;5044951;28;20577;-62
2022/03/15 03:35:28;;;;;;;16.92;9.98;;;;;;;0.97;56.45;101572.28;5045050;28;20068;-62
2022/03/15 03:37:53;;;;;;;24.05;12.02;;;;;;;0.90;56.63;101573.63;5045114;28;20037;-62
2022/03/15 03:40:19;;;;;;;23.70;10.13;;;;;;;0.82;56.85;101570.69;5045068;28;20021;-63
2022/03/15 03:42:44;;;;;;;20.17;11.80;;;;;;;0.78;56.96;101575.59;5044981;28;20021;-61
2022/03/15 03:45:10;;;;;;;27.15;12.70;;;;;;;0.79;56.91;101575.66;5044881;28;20025;-62
2022/03/15 03:47:35;;;;;;;21.08;11.13;;;;;;;0.69;56.86;101579.41;5045063;28;20029;-62
2022/03/15 03:50:01;;;;;;;18.52;9.38;;;;;;;0.74;57.08;101577.09;5044817;28;20029;-62
2022/03/15 03:52:26;;;;;;;28.95;11.20;;;;;;;0.64;57.18;101568.06;5045026;28;20029;-61
2022/03/15 03:54:52;;;;;;;23.42;11.27;;;;;;;0.69;57.02;101573.41;5044986;28;20044;-62
2022/03/15 03:57:17;;;;;;;20.23;9.02;;;;;;;0.70;57.16;101573.50;5044683;28;20454;-62
2022/03/15 03:59:43;;;;;;;23.70;12.05;;;;;;;0.67;57.24;101572.47;5044545;28;20029;-62
2022/03/15 04:02:08;;;;;;;20.20;10.57;;;;;;;0.66;57.54;101563.94;5044894;28;20079;-62
2022/03/15 04:04:34;;;;;;;21.75;9.57;;;;;;;0.65;57.63;101562.19;5044491;28;20481;-61
2022/03/15 04:07:05;;;;;;;20.00;8.13;;;;;;;0.70;57.47;101568.38;5044459;28;20029;-63
2022/03/15 04:09:30;;;;;;;21.90;10.18;;;;;;;0.79;57.69;101570.53;5044872;28;20075;-61
2022/03/15 04:11:56;;;;;;;22.73;11.60;;;;;;;0.86;57.58;101561.50;5044515;28;20030;-62
2022/03/15 04:14:22;;;;;;;25.67;11.30;;;;;;;0.89;57.71;101560.78;5044674;28;20029;-62
2022/03/15 04:16:47;;;;;;;19.10;9.65;;;;;;;0.78;58.09;101565.34;5044863;28;20109;-62
2022/03/15 04:19:13;;;;;;;28.63;13.27;;;;;;;0.73;58.21;101566.00;5044401;28;20021;-62
2022/03/15 04:21:38;;;;;;;18.20;8.27;;;;;;;0.83;57.85;101554.53;5044512;28;20128;-62
2022/03/15 04:24:04;;;;;;;23.45;9.30;;;;;;;0.77;58.33;101567.03;5044478;28;20025;-63
2022/03/15 04:26:30;;;;;;;24.40;9.80;;;;;;;0.86;58.11;101569.19;5026296;28;20056;-62
2022/03/15 04:28:55;;;;;;;26.00;12.35;;;;;;;0.78;58.27;101573.03;5044145;28;20029;-62
2022/03/15 04:31:22;;;;;;;26.70;12.80;;;;;;;0.65;58.42;101574.06;5044115;28;20358;-62
2022/03/15 04:33:48;;;;;;;21.52;12.48;;;;;;;0.66;58.23;101561.38;5043733;28;20033;-62
2022/03/15 04:36:13;;;;;;;25.75;13.00;;;;;;;0.64;58.09;101560.41;5043644;28;20084;-62
2022/03/15 04:38:39;;;;;;;26.13;13.15;;;;;;;0.59;57.84;101556.75;5044258;28;20231;-63
2022/03/15 04:41:05;;;;;;;29.58;13.93;;;;;;;0.58;58.16;101553.31;5044208;28;20556;-62
2022/03/15 04:43:31;;;;;;;27.27;13.13;;;;;;;0.56;57.95;101549.78;5043966;28;20461;-62
2022/03/15 04:45:57;;;;;;;30.92;13.85;;;;;;;0.56;57.75;101552.34;5043603;28;20485;-62
2022/03/15 04:48:23;;;;;;;27.02;13.45;;;;;;;0.58;57.88;101552.44;5043610;28;20052;-62
2022/03/15 04:50:49;;;;;;;25.52;12.52;;;;;;;0.58;57.41;101547.31;5043794;28;20030;-62
2022/03/15 04:53:15;;;;;;;23.73;12.88;;;;;;;0.53;57.54;101554.75;5042288;28;20049;-62
2022/03/15 04:55:40;;;;;;;21.52;12.27;;;;;;;0.52;57.48;101559.78;5043014;28;20033;-62
2022/03/15 04:58:06;;;;;;;25.42;13.10;;;;;;;0.48;57.35;101557.06;5043789;28;20085;-62
2022/03/15 05:00:31;;;;;;;33.17;13.10;;;;;;;0.48;57.88;101556.19;5043337;28;20025;-63
2022/03/15 05:02:57;;;;;;;27.02;13.77;;;;;;;0.46;58.15;101556.09;5043147;28;20048;-62
2022/03/15 05:05:22;;;;;;;29.73;14.02;;;;;;;0.41;58.32;101554.13;5043517;28;20520;-63
2022/03/15 05:07:48;;;;;;;24.55;13.23;;;;;;;0.38;58.33;101553.97;5043356;28;20025;-62
2022/03/15 05:12:57;;;;;;;30.33;14.68;;;;;;;0.38;58.56;101554.84;5043496;28;20080;-62
2022/03/15 05:15:23;;;;;;;24.70;12.70;;;;;;;0.41;58.90;101546.44;5043171;28;20108;-62
2022/03/15 05:17:48;;;;;;;26.05;13.02;;;;;;;0.44;59.16;101544.06;5043210;28;20025;-62
2022/03/15 05:20:14;;;;;;;26.95;13.70;;;;;;;0.47;59.26;101541.66;5043189;28;20477;-63
2022/03/15 05:22:40;;;;;;;27.13;14.05;;;;;;;0.46;59.07;101543.31;5043217;28;20021;-63
2022/03/15 05:25:06;;;;;;;26.70;14.30;;;;;;;0.48;59.19;101536.63;5043021;28;20025;-62
2022/03/15 05:27:33;;;;;;;25.00;14.18;;;;;;;0.51;59.00;101532.47;5043198;28;20025;-63
2022/03/15 05:30:00;;;;;;;28.77;13.95;;;;;;;0.45;59.25;101526.25;5043272;28;20496;-68
2022/03/15 05:32:26;;;;;;;31.08;15.02;;;;;;;0.51;59.26;101528.25;5043238;28;20033;-68
2022/03/15 05:34:51;;;;;;;31.27;14.75;;;;;;;0.54;59.31;101527.53;5043097;28;20040;-64
2022/03/15 05:37:17;;;;;;;27.98;14.15;;;;;;;0.57;59.44;101527.69;5042912;28;20105;-63
2022/03/15 05:39:43;;;;;;;22.20;10.95;;;;;;;0.69;59.49;101524.84;5043142;28;20167;-68
2022/03/15 05:42:10;;;;;;;26.85;14.32;;;;;;;0.72;59.74;101523.34;5042921;28;20025;-66
2022/03/15 05:44:36;;;;;;;27.23;14.80;;;;;;;0.79;59.79;101519.41;5042994;28;20033;-64
2022/03/15 05:47:01;;;;;;;28.67;14.25;;;;;;;0.92;59.53;101522.56;5043073;28;20168;-63
2022/03/15 05:49:26;;;;;;;26.30;13.43;;;;;;;1.16;59.33;101527.13;5043084;28;20079;-62
2022/03/15 05:51:52;;;;;;;26.45;14.77;;;;;;;1.38;58.88;101518.81;5042976;28;20041;-63
2022/03/15 05:54:17;;;;;;;30.85;14.15;;;;;;;1.46;58.86;101520.06;5042932;28;20091;-63
2022/03/15 05:56:42;;;;;;;26.08;12.43;;;;;;;1.56;58.70;101520.47;5042843;28;20021;-63
2022/03/15 05:59:08;;;;;;;27.13;13.43;;;;;;;1.71;58.18;101516.06;5042720;28;20036;-63
2022/03/15 06:01:33;;;;;;;29.45;13.45;;;;;;;1.72;58.14;101517.84;5042897;28;20025;-63
2022/03/15 06:03:59;;;;;;;25.73;13.13;;;;;;;1.77;58.27;101520.63;5042621;28;20085;-64
2022/03/15 06:06:24;;;;;;;30.42;12.43;;;;;;;1.83;57.93;101510.66;5042773;28;20112;-65
2022/03/15 06:08:51;;;;;;;20.55;9.45;;;;;;;1.93;58.20;101532.41;5045579;28;20085;-66
2022/03/15 06:11:17;;;;;;;28.85;13.20;;;;;;;1.90;58.13;101527.13;5046451;28;20041;-66
2022/03/15 06:13:43;;;;;;;22.20;10.65;;;;;;;1.93;58.13;101516.19;5029182;28;20013;-66
2022/03/15 06:16:08;;;;;;;17.75;9.65;;;;;;;1.97;58.27;101512.94;5045938;28;20043;-66
2022/03/15 06:18:34;;;;;;;11.30;8.10;;;;;;;2.04;57.76;101508.97;5046285;28;20056;-64
2022/03/15 06:21:00;;;;;;;12.70;7.70;;;;;;;2.31;57.14;101519.56;5046850;28;20030;-65
2022/03/15 06:23:25;;;;;;;26.15;11.20;;;;;;;2.26;57.46;101522.72;5046684;28;20535;-64
2022/03/15 06:25:51;;;;;;;18.92;9.98;;;;;;;2.21;57.56;101520.84;5046600;28;20033;-65
2022/03/15 06:28:16;;;;;;;10.30;5.65;;;;;;;2.35;57.45;101523.13;5046582;28;20025;-65
2022/03/15 06:30:42;;;;;;;8.10;4.57;;;;;;;2.47;56.85;101521.13;5046680;28;20028;-65
2022/03/15 06:33:07;;;;;;;26.55;11.35;;;;;;;2.13;58.19;101519.63;5046383;28;20033;-64
2022/03/15 06:35:33;;;;;;;26.35;13.07;;;;;;;2.22;58.03;101514.91;5046751;28;20083;-64
2022/03/15 06:38:00;;;;;;;29.63;13.32;;;;;;;2.31;57.78;101516.13;5046441;28;20045;-64
2022/03/15 06:40:26;;;;;;;29.60;11.55;;;;;;;2.34;57.91;101518.81;5046497;28;20033;-64
2022/03/15 06:42:55;;;;;;;19.50;9.68;;;;;;;2.53;57.40;101515.38;5045423;28;20025;-64
2022/03/15 06:45:22;;;;;;;20.23;9.27;;;;;;;2.65;56.80;101521.81;5046090;28;20033;-64
2022/03/15 06:47:48;;;;;;;22.48;10.95;;;;;;;2.72;56.38;101522.16;5045940;28;20025;-64
2022/03/15 06:50:13;;;;;;;23.98;12.10;;;;;;;2.67;57.50;101528.75;5045364;28;20129;-64
2022/03/15 06:52:41;;;;;;;27.70;15.60;;;;;;;3.05;57.94;101527.75;5045536;28;20044;-64
2022/03/15 06:55:07;;;;;;;23.80;14.00;;;;;;;3.63;56.80;101519.69;5045474;28;20277;-63
2022/03/15 06:57:33;;;;;;;35.47;15.13;;;;;;;4.09;54.73;101520.53;5045440;28;20489;-65
2022/03/15 06:59:59;;;;;;;23.20;13.43;;;;;;;4.32;53.27;101516.25;5045509;28;20033;-65
2022/03/15 07:02:26;;;;;;;24.42;13.07;;;;;;;4.35;53.58;101520.59;5045836;28;20021;-65
2022/03/15 07:04:51;;;;;;;27.17;13.88;;;;;;;4.58;53.12;101513.69;5045506;28;20025;-65
2022/03/15 07:07:16;;;;;;;25.98;11.57;;;;;;;4.89;52.36;101513.84;5045362;28;20057;-65
2022/03/15 07:09:42;;;;;;;20.63;11.38;;;;;;;5.08;51.46;101510.16;5045491;28;20048;-65
2022/03/15 07:12:08;;;;;;;26.73;12.52;;;;;;;5.20;51.38;101516.53;5045270;28;20441;-64
2022/03/15 07:14:33;;;;;;;25.88;14.30;;;;;;;5.49;52.13;101514.00;5045574;28;20108;-64
2022/03/15 07:16:59;;;;;;;23.38;11.95;;;;;;;6.08;50.97;101496.81;5045175;28;20021;-64
2022/03/15 07:19:24;;;;;;;28.08;14.38;;;;;;;6.49;50.13;101500.47;5044416;28;20083;-63
2022/03/15 07:21:50;;;;;;;27.13;13.25;;;;;;;6.56;48.04;101479.16;5045282;28;20492;-64
2022/03/15 07:24:15;;;;;;;27.45;14.55;;;;;;;6.45;48.36;101495.22;5045176;28;20036;-64
2022/03/15 07:26:40;;;;;;;22.65;13.43;;;;;;;6.50;49.13;101492.75;5045122;28;20108;-64
2022/03/15 07:29:06;;;;;;;23.30;15.23;;;;;;;6.66;48.05;101494.03;5045123;28;20077;-65
2022/03/15 07:31:31;;;;;;;25.95;13.50;;;;;;;6.79;47.82;101491.75;5045137;28;20052;-65
2022/03/15 07:33:56;;;;;;;25.08;12.88;;;;;;;6.66;46.99;101493.19;5044602;28;20021;-64
2022/03/15 07:36:22;;;;;;;23.40;14.38;;;;;;;6.36;47.79;101491.56;5044860;28;20021;-64
2022/03/15 07:38:48;;;;;;;30.17;17.17;;;;;;;6.50;48.01;101497.06;5045004;28;20040;-65
2022/03/15 07:41:16;;;;;;;29.55;14.55;;;;;;;6.73;47.88;101492.50;5044804;28;20108;-65
2022/03/15 07:43:41;;;;;;;25.20;14.35;;;;;;;6.71;47.14;101477.81;5044892;28;20021;-65
2022/03/15 07:46:07;;;;;;;29.67;14.88;;;;;;;6.76;47.13;101473.63;5044922;28;20037;-68
2022/03/15 07:48:33;;;;;;;28.63;12.68;;;;;;;6.61;47.45;101480.16;5044598;28;20025;-66
2022/03/15 07:50:58;;;;;;;32.30;15.35;;;;;;;6.56;48.08;101479.16;5044751;28;20113;-65
2022/03/15 07:53:23;;;;;;;29.58;15.25;;;;;;;6.80;48.31;101478.03;5044589;28;20025;-65
2022/03/15 07:55:49;;;;;;;32.20;15.98;;;;;;;7.07;47.70;101479.53;5044503;28;20048;-66
2022/03/15 07:58:14;;;;;;;22.75;15.10;;;;;;;6.94;47.12;101473.19;5044710;28;20029;-64
2022/03/15 08:00:39;;;;;;;28.10;15.75;;;;;;;6.65;46.34;101475.94;5044598;28;20021;-66
2022/03/15 08:03:05;;;;;;;26.67;15.82;;;;;;;6.23;47.18;101474.88;5044326;28;20020;-65
2022/03/15 08:05:30;;;;;;;27.52;15.93;;;;;;;5.89;48.03;101475.66;5044406;28;20022;-64
2022/03/15 08:07:56;;;;;;;27.55;15.60;;;;;;;5.67;48.72;101461.28;5044547;28;20059;-65
2022/03/15 08:10:22;;;;;;;32.88;15.15;;;;;;;5.58;49.19;101467.91;5044462;28;20053;-65
2022/03/15 08:12:48;;;;;;;28.30;16.02;;;;;;;5.73;49.40;101470.88;5044394;28;20045;-66
2022/03/15 08:15:13;;;;;;;29.08;14.25;;;;;;;5.81;49.33;101464.25;5044353;28;20032;-64
2022/03/15 08:17:40;;;;;;;28.75;16.73;;;;;;;5.92;49.01;101473.16;5044035;28;20025;-65
2022/03/15 08:20:06;;;;;;;28.88;14.88;;;;;;;5.86;49.05;101483.31;5044032;28;20025;-64
2022/03/15 08:22:32;;;;;;;31.08;15.85;;;;;;;5.73;48.99;101476.03;5044147;28;20165;-64
2022/03/15 08:24:58;;;;;;;27.45;15.02;;;;;;;5.59;49.67;101479.09;5043981;28;20092;-64
2022/03/15 08:27:24;;;;;;;32.22;15.48;;;;;;;5.56;49.95;101479.88;5043806;28;20093;-65
2022/03/15 08:29:50;;;;;;;27.30;14.25;;;;;;;5.69;49.96;101481.09;5043370;28;20346;-64
2022/03/15 08:32:15;;;;;;;28.63;15.18;;;;;;;5.77;49.63;101468.44;5043296;28;20128;-65
2022/03/15 08:34:42;;;;;;;28.73;14.95;;;;;;;5.77;49.60;101467.56;5043786;28;20028;-65
2022/03/15 08:37:08;;;;;;;25.88;14.38;;;;;;;5.91;50.01;101476.56;5043552;28;20067;-65
2022/03/15 08:39:34;;;;;;;25.88;14.77;;;;;;;6.36;49.53;101482.09;5043671;28;20103;-64
2022/03/15 08:42:00;;;;;;;27.13;14.80;;;;;;;6.89;48.46;101474.78;5043808;28;20041;-64
2022/03/15 08:44:25;;;;;;;24.88;14.48;;;;;;;7.11;48.03;101470.16;5043909;28;20427;-64
2022/03/15 08:46:51;;;;;;;24.10;10.73;;;;;;;7.62;46.97;101476.41;5043508;28;20029;-65
2022/03/15 08:49:18;;;;;;;31.17;17.58;;;;;;;7.75;46.31;101474.09;5043316;28;20024;-64
2022/03/15 08:51:44;;;;;;;29.55;15.80;;;;;;;8.04;46.84;101476.41;5043476;28;20028;-64
2022/03/15 08:54:09;;;;;;;32.60;15.95;;;;;;;8.65;46.15;101480.09;5042247;28;20038;-64
2022/03/15 08:56:40;;;;;;;28.88;16.42;;;;;;;9.27;45.24;101480.19;5043335;28;20025;-64
2022/03/15 08:59:05;;;;;;;27.70;16.40;;;;;;;9.73;43.86;101474.75;5043485;28;20044;-63
2022/03/15 09:01:31;;;;;;;26.60;15.82;;;;;;;10.24;43.61;101484.81;5043430;28;20025;-64
2022/03/15 09:03:56;;;;;;;26.48;15.68;;;;;;;10.90;42.27;101485.44;5043298;28;20075;-63
2022/03/15 09:06:21;;;;;;;31.38;17.40;;;;;;;11.42;41.01;101480.56;5043184;28;20425;-63
2022/03/15 09:08:47;;;;;;;31.80;18.15;;;;;;;11.95;40.19;101475.59;5043265;28;20021;-63
2022/03/15 09:11:12;;;;;;;28.30;16.70;;;;;;;12.62;39.58;101474.00;5043168;28;20026;-63
2022/03/15 09:13:38;;;;;;;30.60;17.65;;;;;;;13.33;37.62;101477.38;5043180;28;20041;-64
2022/03/15 09:16:05;;;;;;;26.83;17.00;;;;;;;13.57;36.91;101470.38;5043086;28;20044;-64
2022/03/15 09:18:31;;;;;;;30.00;18.10;;;;;;;13.67;35.06;101483.41;5042882;28;20081;-64
2022/03/15 09:20:56;;;;;;;36.28;18.05;;;;;;;13.32;35.88;101478.25;5043172;28;20029;-63
2022/03/15 09:23:22;;;;;;;36.63;17.02;;;;;;;13.58;36.23;101477.34;5042963;28;20044;-65
2022/03/15 09:25:49;;;;;;;28.75;17.02;;;;;;;13.93;35.36;101469.38;5043043;28;20029;-64
2022/03/15 09:28:15;;;;;;;28.35;16.83;;;;;;;14.17;34.96;101473.56;5043117;28;20076;-64
2022/03/15 09:30:41;;;;;;;31.30;17.80;;;;;;;14.71;34.58;101480.13;5043165;28;20109;-63
2022/03/15 09:33:06;;;;;;;33.20;17.25;;;;;;;15.23;33.71;101464.84;5042950;28;20056;-64
2022/03/15 09:35:31;;;;;;;26.65;18.05;;;;;;;15.68;33.06;101465.22;5042608;28;20032;-63
2022/03/15 09:37:57;;;;;;;26.55;17.25;;;;;;;16.17;32.67;101461.06;5043032;28;20183;-64
2022/03/15 09:40:25;;;;;;;25.30;16.83;;;;;;;16.89;31.17;101462.53;5042830;28;20048;-65
2022/03/15 09:42:56;;;;;;;25.00;17.15;;;;;;;17.18;29.76;101463.78;5042682;28;20022;-64
2022/03/15 09:45:23;;;;;;;29.23;17.58;;;;;;;17.57;30.27;101475.28;5042954;28;20025;-64
2022/03/15 09:47:54;;;;;;;29.80;17.33;;;;;;;17.86;29.64;101467.66;5043045;28;20079;-64
2022/03/15 09:50:20;;;;;;;27.47;18.60;;;;;;;17.73;29.10;101477.56;5042546;28;20447;-63
2022/03/15 09:52:48;;;;;;;27.60;17.67;;;;;;;18.12;28.85;101471.47;5042653;28;20278;-63
2022/03/15 09:55:13;;;;;;;29.38;17.40;;;;;;;18.35;28.16;101477.97;5042724;28;20021;-64
2022/03/15 09:57:40;;;;;;;26.00;16.60;;;;;;;18.25;28.13;101472.94;5042581;28;20094;-64
2022/03/15 10:00:06;;;;;;;25.45;17.80;;;;;;;17.50;28.44;101473.66;5042834;28;20026;-63
2022/03/15 10:02:32;;;;;;;32.80;17.73;;;;;;;16.83;28.88;101476.63;5042518;28;20029;-63
2022/03/15 10:04:57;;;;;;;24.92;17.92;;;;;;;16.18;29.07;101481.13;5042613;28;20026;-64
2022/03/15 10:07:23;;;;;;;28.30;17.67;;;;;;;15.44;29.91;101477.72;5042478;28;20263;-63
2022/03/15 10:09:48;;;;;;;29.38;17.98;;;;;;;14.66;30.69;101483.66;5042549;28;20056;-63
2022/03/15 10:12:14;;;;;;;28.75;16.75;;;;;;;13.81;31.78;101473.78;5043059;28;20029;-63
2022/03/15 10:14:44;;;;;;;30.20;17.98;;;;;;;12.92;33.13;101483.53;5042594;28;20043;-63
2022/03/15 10:17:11;;;;;;;26.90;17.05;;;;;;;12.32;34.61;101483.53;5042638;28;20021;-64
2022/03/15 10:19:36;;;;;;;32.05;18.20;;;;;;;11.90;35.73;101479.03;5042328;28;20036;-64
2022/03/15 10:22:04;;;;;;;29.08;17.50;;;;;;;12.26;36.24;101470.50;5042563;28;20033;-64
2022/03/15 10:24:30;;;;;;;28.90;18.27;;;;;;;12.97;35.74;101471.38;5042590;28;20032;-64
2022/03/15 10:27:01;;;;;;;27.42;19.05;;;;;;;13.06;35.04;101471.38;5042461;28;20030;-64
2022/03/15 10:29:28;;;;;;;27.90;18.85;;;;;;;12.59;35.62;101471.38;5042551;28;20044;-64
2022/03/15 10:31:54;;;;;;;28.45;17.65;;;;;;;12.38;36.14;101473.09;5042373;28;20030;-63
2022/03/15 10:34:21;;;;;;;30.60;19.48;;;;;;;12.42;36.34;101473.09;5042250;28;20025;-63
2022/03/15 10:36:51;;;;;;;26.92;18.17;;;;;;;12.20;36.83;101473.97;5042147;28;20103;-63
2022/03/15 10:39:19;;;;;;;29.83;18.40;;;;;;;12.33;37.29;101467.00;5042485;28;20053;-63
2022/03/15 10:41:51;;;;;;;30.80;18.95;;;;;;;12.48;36.79;101476.59;5042551;28;20063;-64
2022/03/15 10:44:21;;;;;;;;;;;;;;;12.45;36.66;101476.59;5042999;28;20056;-64
2022/03/15 10:47:05;;;;;;;31.63;19.60;;;;;;;12.36;36.99;101477.44;5042011;28;19939;-64
2022/03/15 10:49:34;;;;;;;29.52;17.75;;;;;;;12.26;36.75;101483.50;5041985;28;20044;-64
2022/03/15 10:51:59;;;;;;;33.08;19.70;;;;;;;11.94;37.23;101481.66;5042311;28;20108;-63
2022/03/15 10:54:27;;;;;;;28.27;18.23;;;;;;;11.56;37.80;101478.91;5044119;28;20029;-63
2022/03/15 10:56:58;;;;;;;33.97;19.27;;;;;;;11.10;38.60;101485.56;5045658;28;20059;-63
2022/03/15 10:59:24;;;;;;;28.10;19.10;;;;;;;10.74;39.22;101467.13;5045733;28;20027;-64
2022/03/15 11:01:51;;;;;;;36.85;19.88;;;;;;;10.71;39.37;101481.81;5045754;28;20017;-63
2022/03/15 11:04:18;;;;;;;31.00;18.42;;;;;;;10.47;39.82;101478.16;5045419;28;20080;-64
2022/03/15 11:06:49;;;;;;;33.65;19.27;;;;;;;10.20;40.30;101484.78;5045369;28;20092;-64
2022/03/15 11:09:16;;;;;;;33.30;19.60;;;;;;;9.86;41.19;101470.59;5045459;28;20049;-64
2022/03/15 11:11:42;;;;;;;33.40;19.20;;;;;;;9.73;41.62;101471.31;5045362;28;20022;-63
2022/03/15 11:14:09;;;;;;;32.83;19.80;;;;;;;9.61;42.68;101478.06;5045550;28;20021;-63